Time;durP1;ratioP1;P1;durP2;ratioP2;P2;SDS_P1;SDS_P2;PMS_P1;PMS_P2;Temp;Humidity;BMP_temperature;BMP_pressure;BME280_temperature;BME280_humidity;BME280_pressure;Samples;Min_cycle;Max_cycle;Signal;HPM_P1;HPM_P2
2022/11/25 00:00:48;;;;;;;12.60;3.60;;;12.30;84.40;;;;;;5003697;28;20174;-80
2022/11/25 00:03:14;;;;;;;12.13;3.50;;;12.30;84.40;;;;;;5011241;28;20202;-83
2022/11/25 00:05:39;;;;;;;18.07;4.07;;;12.30;83.90;;;;;;5010283;28;20180;-82
2022/11/25 00:08:06;;;;;;;11.23;3.73;;;12.50;83.00;;;;;;5010247;28;20645;-79
2022/11/25 00:10:35;;;;;;;17.20;4.03;;;12.40;84.30;;;;;;5003466;28;20180;-84
2022/11/25 00:13:08;;;;;;;13.07;3.50;;;12.30;85.90;;;;;;5000738;28;20164;-81
2022/11/25 00:15:37;;;;;;;11.33;2.93;;;12.40;87.60;;;;;;5004009;28;20182;-81
2022/11/25 00:18:11;;;;;;;13.83;3.60;;;12.20;89.00;;;;;;5007024;28;20652;-82
2022/11/25 00:20:41;;;;;;;13.17;3.93;;;12.20;90.00;;;;;;5005793;28;20186;-85
2022/11/25 00:23:08;;;;;;;14.00;3.27;;;12.20;90.90;;;;;;4998281;28;20199;-85
2022/11/25 00:25:39;;;;;;;10.50;3.67;;;12.10;92.20;;;;;;4996555;28;20169;-86
2022/11/25 00:28:05;;;;;;;18.10;4.20;;;12.10;92.70;;;;;;4996591;28;20158;-85
2022/11/25 00:30:31;;;;;;;13.20;4.00;;;12.10;92.50;;;;;;4996696;28;20704;-85
2022/11/25 00:32:57;;;;;;;11.07;3.17;;;12.20;91.50;;;;;;4978890;28;20171;-85
2022/11/25 00:35:22;;;;;;;8.27;2.33;;;12.20;89.30;;;;;;4979437;28;20207;-87
2022/11/25 00:37:48;;;;;;;8.70;2.17;;;11.80;89.30;;;;;;4995153;28;20537;-86
2022/11/25 00:40:14;;;;;;;9.20;2.40;;;11.50;91.30;;;;;;4994104;28;20742;-79
2022/11/25 00:45:24;;;;;;;4.63;1.30;;;11.30;90.90;;;;;;4995352;28;20222;-89
2022/11/25 00:47:53;;;;;;;5.47;1.30;;;11.00;93.00;;;;;;4996624;28;20170;-88
2022/11/25 00:50:19;;;;;;;4.43;1.07;;;10.90;94.00;;;;;;4997384;28;20651;-88
2022/11/25 00:52:45;;;;;;;4.60;1.40;;;10.90;95.10;;;;;;4980513;28;20175;-89
2022/11/25 00:55:10;;;;;;;5.70;1.40;;;10.80;96.80;;;;;;4997263;28;20171;-88
2022/11/25 00:57:36;;;;;;;3.87;1.23;;;10.90;97.10;;;;;;4996534;28;20628;-89
2022/11/25 01:00:03;;;;;;;4.53;1.60;;;11.00;96.60;;;;;;4998481;28;20162;-88
2022/11/25 01:02:28;;;;;;;4.83;1.47;;;10.90;96.40;;;;;;4984472;28;20218;-87
2022/11/25 01:04:54;;;;;;;5.50;1.40;;;10.80;97.30;;;;;;4984399;28;20522;-88
2022/11/25 01:07:20;;;;;;;4.80;1.57;;;10.80;97.80;;;;;;4999259;28;20172;-89
2022/11/25 01:09:46;;;;;;;2.43;1.10;;;10.70;98.60;;;;;;5000908;28;20258;-90
2022/11/25 01:12:12;;;;;;;4.70;1.20;;;10.70;99.00;;;;;;5002541;28;20170;-89
2022/11/25 01:14:38;;;;;;;6.77;1.07;;;10.70;99.40;;;;;;5004887;28;20198;-87
2022/11/25 01:17:04;;;;;;;4.30;1.33;;;10.70;99.90;;;;;;5000955;28;20175;-89
2022/11/25 01:19:29;;;;;;;2.60;1.10;;;10.60;99.90;;;;;;4985643;28;20175;-88
2022/11/25 01:21:55;;;;;;;5.47;1.20;;;10.70;99.90;;;;;;5002572;28;20242;-80
2022/11/25 01:24:21;;;;;;;4.63;1.20;;;10.70;99.90;;;;;;4996343;28;20170;-79
2022/11/25 01:26:46;;;;;;;2.77;1.23;;;10.80;99.90;;;;;;4997554;28;20251;-80
2022/11/25 01:29:17;;;;;;;3.23;1.00;;;10.80;99.90;;;;;;4996221;28;20175;-81
2022/11/25 01:31:49;;;;;;;3.83;1.20;;;10.80;99.90;;;;;;4995978;28;20281;-83
2022/11/25 01:34:21;;;;;;;4.90;1.47;;;10.70;99.90;;;;;;4995071;28;20172;-81
2022/11/25 01:36:53;;;;;;;3.30;1.20;;;10.50;99.90;;;;;;4995564;28;20183;-81
2022/11/25 01:39:23;;;;;;;3.83;1.23;;;10.60;99.90;;;;;;4978132;28;20230;-80
2022/11/25 01:41:49;;;;;;;3.80;1.20;;;10.60;99.90;;;;;;4999956;28;20237;-79
2022/11/25 01:44:20;;;;;;;3.67;1.20;;;10.70;99.90;;;;;;4983997;28;20639;-79
2022/11/25 01:47:10;;;;;;;3.33;1.30;;;10.60;99.90;;;;;;4999546;28;20167;-81
2022/11/25 01:49:42;;;;;;;3.13;1.20;;;10.80;99.90;;;;;;4990969;28;20214;-82
2022/11/25 01:52:23;;;;;;;5.30;1.57;;;10.70;99.90;;;;;;4985910;28;20186;-87
2022/11/25 01:55:04;;;;;;;2.60;1.07;;;10.70;99.90;;;;;;4998818;28;20688;-80
2022/11/25 01:57:36;;;;;;;2.07;0.87;;;10.70;99.90;;;;;;5000297;28;20273;-80
2022/11/25 02:00:04;;;;;;;3.40;1.10;;;10.40;99.90;;;;;;4998479;28;20162;-80
2022/11/25 02:02:31;;;;;;;2.10;1.00;;;10.30;99.90;;;;;;4997678;28;20249;-79
2022/11/25 02:04:59;;;;;;;2.77;0.97;;;10.30;99.90;;;;;;4980786;28;20167;-81
2022/11/25 02:07:33;;;;;;;2.10;0.80;;;10.40;99.90;;;;;;4997583;28;20156;-81
2022/11/25 02:10:02;;;;;;;3.23;0.93;;;10.40;99.90;;;;;;4997695;28;20262;-79
2022/11/25 02:12:31;;;;;;;2.77;0.70;;;10.50;99.90;;;;;;4997443;28;20666;-83
2022/11/25 02:14:58;;;;;;;2.03;0.80;;;10.50;99.90;;;;;;4998048;28;20203;-80
2022/11/25 02:17:24;;;;;;;2.53;1.20;;;10.60;99.90;;;;;;4998875;28;20176;-79
2022/11/25 02:19:59;;;;;;;3.43;1.10;;;10.50;99.90;;;;;;4984227;28;20253;-82
2022/11/25 02:23:18;;;;;;;2.73;0.90;;;10.50;99.90;;;;;;5015135;28;20214;-78
2022/11/25 02:25:45;;;;;;;2.57;0.90;;;10.50;99.90;;;;;;4975995;28;20184;-78
2022/11/25 02:28:29;;;;;;;3.33;1.10;;;10.50;99.90;;;;;;4988132;28;20182;-80
2022/11/25 02:31:03;;;;;;;3.13;1.00;;;10.40;99.90;;;;;;4999515;28;20196;-80
2022/11/25 02:33:47;;;;;;;4.80;1.40;;;10.30;99.90;;;;;;4998505;28;20168;-79
2022/11/25 02:36:19;;;;;;;1.63;0.90;;;10.20;99.90;;;;;;4980967;28;20647;-79
2022/11/25 02:38:51;;;;;;;3.17;0.90;;;10.20;99.90;;;;;;4998203;28;20163;-79
2022/11/25 02:41:17;;;;;;;3.43;1.00;;;10.20;99.90;;;;;;4996476;28;20265;-79
2022/11/25 02:43:43;;;;;;;2.73;1.13;;;10.20;99.90;;;;;;4979061;28;20190;-83
2022/11/25 02:46:11;;;;;;;1.97;1.00;;;10.20;99.90;;;;;;4996461;28;20167;-80
2022/11/25 02:48:39;;;;;;;2.47;1.00;;;10.10;99.90;;;;;;4995226;28;20175;-80
2022/11/25 02:51:06;;;;;;;3.47;1.17;;;10.10;99.90;;;;;;4996278;28;20175;-80
2022/11/25 02:53:32;;;;;;;5.23;1.33;;;10.10;99.90;;;;;;4995084;28;20257;-81
2022/11/25 02:55:59;;;;;;;2.57;0.90;;;10.10;99.90;;;;;;4996321;28;20211;-78
2022/11/25 02:58:25;;;;;;;4.63;1.03;;;10.00;99.90;;;;;;4988771;28;20171;-79
2022/11/25 03:00:51;;;;;;;2.10;1.00;;;10.10;99.90;;;;;;5019317;28;20179;-78
2022/11/25 03:03:17;;;;;;;3.77;1.47;;;10.00;99.90;;;;;;5018358;28;20183;-84
2022/11/25 03:05:45;;;;;;;3.03;1.20;;;10.00;99.90;;;;;;5001664;28;20175;-80
2022/11/25 03:08:14;;;;;;;3.83;1.27;;;10.10;99.90;;;;;;4979699;28;20182;-81
2022/11/25 03:10:41;;;;;;;4.60;1.30;;;9.90;99.90;;;;;;4997875;28;20177;-79
2022/11/25 03:13:08;;;;;;;3.53;1.40;;;9.80;99.90;;;;;;4985499;28;20178;-85
2022/11/25 03:15:35;;;;;;;3.27;1.20;;;9.80;99.90;;;;;;4987007;28;20175;-88
2022/11/25 03:18:05;;;;;;;3.60;1.40;;;9.90;99.90;;;;;;5007421;28;20198;-86
2022/11/25 03:20:31;;;;;;;4.83;1.60;;;9.80;99.90;;;;;;5015153;28;20182;-86
2022/11/25 03:22:56;;;;;;;6.83;1.70;;;9.80;99.90;;;;;;4993883;28;20215;-84
2022/11/25 03:25:37;;;;;;;6.27;1.47;;;9.80;99.90;;;;;;5015977;28;20154;-85
2022/11/25 03:28:04;;;;;;;5.00;2.00;;;9.70;99.90;;;;;;5012836;28;20174;-87
2022/11/25 03:30:30;;;;;;;5.10;1.77;;;9.80;99.90;;;;;;4990986;28;20179;-88
2022/11/25 03:32:56;;;;;;;6.13;2.10;;;9.80;99.90;;;;;;5012500;28;20164;-88
2022/11/25 03:35:22;;;;;;;6.30;2.23;;;9.70;99.90;;;;;;4992285;28;20182;-87
2022/11/25 03:37:49;;;;;;;6.53;2.60;;;9.70;99.90;;;;;;5012697;28;20175;-86
2022/11/25 03:40:15;;;;;;;5.97;2.60;;;9.70;99.90;;;;;;5010318;28;20195;-85
2022/11/25 03:42:42;;;;;;;5.77;2.53;;;9.70;99.90;;;;;;5010784;28;20207;-87
2022/11/25 03:45:14;;;;;;;8.67;2.43;;;9.70;99.90;;;;;;4989846;28;20178;-85
2022/11/25 03:47:44;;;;;;;10.23;2.50;;;9.80;99.90;;;;;;5002371;28;20182;-80
2022/11/25 03:50:13;;;;;;;6.87;2.67;;;9.80;99.90;;;;;;4999459;28;20179;-85
2022/11/25 03:52:40;;;;;;;6.73;2.50;;;9.90;99.90;;;;;;4980492;28;20206;-85
2022/11/25 03:55:06;;;;;;;6.37;2.27;;;9.80;99.90;;;;;;4997069;28;20179;-81
2022/11/25 03:57:33;;;;;;;8.07;2.80;;;9.80;99.90;;;;;;4979968;28;20631;-81
2022/11/25 04:00:00;;;;;;;9.57;2.83;;;9.80;99.90;;;;;;4980308;28;20183;-79
2022/11/25 04:02:27;;;;;;;6.53;2.77;;;9.80;99.90;;;;;;4996702;28;20211;-80
2022/11/25 04:04:53;;;;;;;8.13;2.70;;;9.80;99.90;;;;;;4997431;28;20175;-86
2022/11/25 04:07:18;;;;;;;7.40;2.80;;;9.70;99.90;;;;;;4995966;28;20246;-81
2022/11/25 04:09:44;;;;;;;7.93;2.67;;;9.70;99.90;;;;;;4995695;28;20701;-86
2022/11/25 04:14:57;;;;;;;8.73;2.57;;;9.70;99.90;;;;;;5002993;28;20186;-85
2022/11/25 04:17:23;;;;;;;9.40;2.97;;;9.70;99.90;;;;;;5016750;28;20151;-82
2022/11/25 04:19:50;;;;;;;7.23;2.80;;;9.70;99.90;;;;;;5016526;28;20195;-85
2022/11/25 04:22:22;;;;;;;10.67;3.10;;;9.80;99.90;;;;;;5017320;28;20221;-80
2022/11/25 04:25:06;;;;;;;9.03;3.00;;;9.80;99.90;;;;;;4994910;28;20186;-81
2022/11/25 04:27:35;;;;;;;9.77;3.50;;;9.90;99.90;;;;;;5006491;28;20206;-87
2022/11/25 04:30:00;;;;;;;8.67;2.60;;;9.90;99.90;;;;;;4977961;28;20167;-86
2022/11/25 04:32:26;;;;;;;7.87;3.10;;;9.80;99.90;;;;;;4995308;28;20190;-80
2022/11/25 04:34:52;;;;;;;8.23;2.83;;;9.90;99.90;;;;;;4995011;28;20167;-81
2022/11/25 04:37:17;;;;;;;8.77;2.90;;;9.90;99.90;;;;;;4996031;28;20242;-82
2022/11/25 04:39:43;;;;;;;6.97;2.63;;;9.80;99.90;;;;;;4994268;28;20217;-83
2022/11/25 04:44:53;;;;;;;8.60;3.17;;;10.00;99.90;;;;;;4997163;28;20570;-82
2022/11/25 04:47:20;;;;;;;10.27;3.33;;;9.90;99.90;;;;;;4996298;28;20179;-80
2022/11/25 04:49:45;;;;;;;7.83;2.37;;;9.90;99.90;;;;;;4994979;28;20593;-87
2022/11/25 04:52:12;;;;;;;10.63;2.60;;;9.90;99.90;;;;;;4993639;28;20640;-81
2022/11/25 04:54:38;;;;;;;9.57;2.73;;;9.90;99.90;;;;;;4994689;28;20181;-80
2022/11/25 04:57:04;;;;;;;8.67;2.70;;;9.90;99.90;;;;;;4995203;28;20253;-81
2022/11/25 04:59:38;;;;;;;9.60;2.80;;;9.90;99.90;;;;;;4997917;28;20194;-79
2022/11/25 05:02:06;;;;;;;8.07;2.67;;;9.90;99.90;;;;;;4980129;28;20218;-83
2022/11/25 05:04:31;;;;;;;9.87;3.50;;;10.10;99.90;;;;;;4995829;28;20172;-82
2022/11/25 05:06:58;;;;;;;10.30;3.63;;;10.00;99.90;;;;;;4995826;28;20175;-83
2022/11/25 05:09:24;;;;;;;9.83;2.57;;;10.00;99.90;;;;;;4978089;28;20183;-82
2022/11/25 05:11:49;;;;;;;10.53;2.80;;;10.00;99.90;;;;;;4995259;28;20501;-84
2022/11/25 05:14:16;;;;;;;12.30;2.87;;;10.00;99.90;;;;;;4994825;28;20638;-83
2022/11/25 05:16:42;;;;;;;9.37;2.60;;;9.90;99.90;;;;;;4993911;28;20182;-80
2022/11/25 05:19:08;;;;;;;9.53;2.67;;;9.90;99.90;;;;;;4976606;28;20186;-80
2022/11/25 05:21:33;;;;;;;10.80;2.97;;;9.90;99.90;;;;;;4996386;28;20229;-83
2022/11/25 05:23:59;;;;;;;10.37;2.67;;;9.80;99.90;;;;;;4999913;28;20171;-79
2022/11/25 05:26:26;;;;;;;10.47;2.70;;;9.80;99.90;;;;;;5001529;28;20206;-80
2022/11/25 05:28:51;;;;;;;6.93;2.40;;;10.10;99.90;;;;;;4999446;28;20241;-80
2022/11/25 05:31:17;;;;;;;8.60;2.90;;;10.10;99.90;;;;;;4998420;28;20199;-80
2022/11/25 05:33:42;;;;;;;14.93;2.97;;;10.10;99.90;;;;;;4998643;28;20175;-81
2022/11/25 05:36:09;;;;;;;8.40;3.10;;;10.10;99.90;;;;;;4999566;28;20197;-82
2022/11/25 05:38:34;;;;;;;7.97;2.70;;;10.00;99.90;;;;;;5001586;28;20203;-79
2022/11/25 05:41:03;;;;;;;6.37;2.33;;;10.10;99.90;;;;;;4983383;28;20186;-84
2022/11/25 05:43:29;;;;;;;7.27;2.60;;;10.20;99.90;;;;;;4986491;28;20214;-80
2022/11/25 05:45:55;;;;;;;8.37;2.70;;;10.10;99.90;;;;;;5010722;28;20167;-84
2022/11/25 05:48:20;;;;;;;8.53;3.20;;;10.10;99.90;;;;;;5017539;28;20183;-80
2022/11/25 05:50:46;;;;;;;10.07;2.70;;;10.10;99.90;;;;;;5018890;28;20179;-79
2022/11/25 05:53:16;;;;;;;8.37;2.93;;;9.90;99.90;;;;;;5014628;28;20225;-81
2022/11/25 05:55:53;;;;;;;10.40;2.70;;;9.90;99.90;;;;;;4996234;28;20254;-80
2022/11/25 05:58:22;;;;;;;8.17;2.90;;;9.90;99.90;;;;;;5010480;28;20170;-80
2022/11/25 06:00:51;;;;;;;11.30;2.60;;;9.80;99.90;;;;;;5010436;28;20194;-80
2022/11/25 06:03:28;;;;;;;9.37;2.77;;;9.60;99.90;;;;;;5011094;28;20163;-80
2022/11/25 06:05:58;;;;;;;8.33;2.60;;;9.60;99.90;;;;;;5007561;28;20249;-87
2022/11/25 06:08:25;;;;;;;10.47;2.90;;;9.60;99.90;;;;;;5000266;28;20173;-87
2022/11/25 06:10:55;;;;;;;9.33;3.07;;;9.60;99.90;;;;;;5009568;28;20167;-85
2022/11/25 06:13:21;;;;;;;9.43;3.17;;;9.50;99.90;;;;;;5010844;28;20179;-87
2022/11/25 06:15:47;;;;;;;10.53;2.93;;;9.50;99.90;;;;;;5006374;28;20225;-85
2022/11/25 06:18:15;;;;;;;7.77;2.87;;;9.60;99.90;;;;;;5002060;28;20171;-84
2022/11/25 06:20:41;;;;;;;9.73;2.97;;;9.50;99.90;;;;;;4970776;28;20194;-88
2022/11/25 06:23:08;;;;;;;9.77;3.00;;;9.50;99.90;;;;;;4985581;28;20207;-87
2022/11/25 06:25:35;;;;;;;10.00;2.73;;;9.50;99.90;;;;;;4991747;28;20179;-84
2022/11/25 06:28:02;;;;;;;9.00;2.90;;;9.40;99.90;;;;;;5007625;28;20179;-85
2022/11/25 06:30:28;;;;;;;9.67;2.70;;;9.40;99.90;;;;;;5006017;28;20167;-82
2022/11/25 06:32:57;;;;;;;7.40;2.53;;;9.40;99.90;;;;;;5000673;28;20193;-86
2022/11/25 06:35:24;;;;;;;12.17;3.03;;;9.40;99.90;;;;;;5001044;28;20171;-86
2022/11/25 06:37:50;;;;;;;11.23;3.17;;;9.40;99.90;;;;;;4984326;28;20177;-83
2022/11/25 06:40:16;;;;;;;8.73;2.93;;;9.50;99.90;;;;;;4998486;28;20179;-84
2022/11/25 06:42:42;;;;;;;8.63;2.77;;;9.40;99.90;;;;;;4998737;28;20565;-81
2022/11/25 06:45:08;;;;;;;10.53;2.90;;;9.40;99.90;;;;;;4999152;28;20707;-85
2022/11/25 06:47:34;;;;;;;7.47;2.90;;;9.40;99.90;;;;;;5000919;28;20186;-82
2022/11/25 06:49:59;;;;;;;11.87;3.13;;;9.30;99.90;;;;;;5000544;28;20510;-88
2022/11/25 06:52:25;;;;;;;12.50;2.90;;;9.40;99.90;;;;;;4998286;28;20182;-85
2022/11/25 06:54:50;;;;;;;13.00;3.40;;;9.50;99.90;;;;;;5000429;28;20772;-87
2022/11/25 06:57:18;;;;;;;7.97;3.17;;;9.30;99.90;;;;;;5018020;28;20170;-83
2022/11/25 06:59:47;;;;;;;10.33;3.03;;;9.40;99.90;;;;;;5035247;28;20170;-87
2022/11/25 07:02:13;;;;;;;9.97;3.47;;;9.30;99.90;;;;;;5001824;28;20249;-90
2022/11/25 07:04:40;;;;;;;10.27;3.20;;;9.30;99.90;;;;;;5003083;28;20230;-87
2022/11/25 07:07:06;;;;;;;11.93;3.83;;;9.30;99.90;;;;;;5025845;28;20166;-87
2022/11/25 07:09:35;;;;;;;9.47;3.20;;;9.20;99.90;;;;;;5030458;28;20167;-85
2022/11/25 07:12:01;;;;;;;9.50;3.20;;;9.20;99.90;;;;;;5029540;28;20166;-88
2022/11/25 07:14:26;;;;;;;11.57;3.40;;;9.20;99.90;;;;;;5027879;28;20169;-87
2022/11/25 07:16:52;;;;;;;9.20;3.53;;;9.20;99.90;;;;;;5021051;28;20178;-88
2022/11/25 07:19:18;;;;;;;10.93;3.20;;;9.20;99.90;;;;;;5006308;28;20182;-88
2022/11/25 07:21:44;;;;;;;11.60;3.10;;;9.20;99.90;;;;;;5023644;28;20240;-90
2022/11/25 07:24:13;;;;;;;11.47;3.70;;;9.20;99.90;;;;;;5018871;28;20178;-90
2022/11/25 07:26:41;;;;;;;13.03;3.87;;;9.20;99.90;;;;;;5017489;28;20650;-90
2022/11/25 07:29:09;;;;;;;14.43;4.03;;;9.10;99.90;;;;;;5020421;28;20166;-88
2022/11/25 07:31:41;;;;;;;12.90;3.37;;;9.10;99.90;;;;;;5019822;28;20245;-88
2022/11/25 07:34:13;;;;;;;13.57;3.53;;;9.10;99.90;;;;;;5022676;28;20178;-88
2022/11/25 07:37:18;;;;;;;12.17;3.40;;;9.10;99.90;;;;;;5025778;28;20174;-91
2022/11/25 07:39:44;;;;;;;15.63;3.67;;;9.20;99.90;;;;;;5014514;28;20180;-88
2022/11/25 07:42:15;;;;;;;10.80;3.70;;;9.10;99.90;;;;;;5027089;28;20198;-87
2022/11/25 07:44:40;;;;;;;12.57;3.40;;;9.10;99.90;;;;;;5032612;28;20399;-85
2022/11/25 07:47:08;;;;;;;14.87;3.43;;;9.30;99.90;;;;;;5025567;28;20189;-89
2022/11/25 07:49:34;;;;;;;12.63;3.30;;;9.30;99.90;;;;;;5016891;28;20201;-91
2022/11/25 07:52:01;;;;;;;14.27;3.60;;;9.40;99.90;;;;;;5015566;28;20186;-91
2022/11/25 07:54:29;;;;;;;11.33;3.10;;;9.50;99.90;;;;;;5023930;28;20176;-88
2022/11/25 07:56:55;;;;;;;9.10;3.47;;;9.50;99.90;;;;;;5008317;28;20212;-87
2022/11/25 07:59:35;;;;;;;17.53;3.57;;;9.60;99.90;;;;;;5012833;28;20716;-85
2022/11/25 08:02:01;;;;;;;14.17;3.23;;;9.40;99.90;;;;;;5015124;28;20221;-88
2022/11/25 08:04:27;;;;;;;11.60;3.47;;;9.40;99.90;;;;;;5023202;28;20181;-85
2022/11/25 08:07:10;;;;;;;16.20;3.60;;;9.50;99.90;;;;;;5027954;28;20146;-87
2022/11/25 08:09:37;;;;;;;14.17;4.47;;;9.50;99.90;;;;;;5027942;28;20213;-87
2022/11/25 08:12:03;;;;;;;14.07;3.57;;;9.50;99.90;;;;;;5025611;28;20170;-86
2022/11/25 08:14:29;;;;;;;12.70;3.50;;;9.50;99.90;;;;;;5029099;28;20523;-85
2022/11/25 08:16:56;;;;;;;13.93;3.97;;;9.40;99.90;;;;;;5031065;28;20190;-84
2022/11/25 08:19:24;;;;;;;12.80;3.50;;;9.40;99.90;;;;;;5027500;28;20189;-93
2022/11/25 08:21:54;;;;;;;15.73;3.77;;;9.60;99.90;;;;;;5029187;28;20214;-87
2022/11/25 08:24:21;;;;;;;16.03;3.90;;;9.60;99.90;;;;;;5031128;28;20184;-86
2022/11/25 08:26:49;;;;;;;9.43;3.53;;;9.70;99.90;;;;;;5029931;28;20202;-86
2022/11/25 08:29:17;;;;;;;13.97;4.10;;;9.60;99.90;;;;;;5033809;28;20170;-84
2022/11/25 08:31:47;;;;;;;10.07;3.60;;;9.60;99.90;;;;;;5029982;28;20218;-79
2022/11/25 08:34:25;;;;;;;13.43;4.63;;;9.60;99.90;;;;;;5020950;28;20186;-80
2022/11/25 08:36:54;;;;;;;15.00;4.33;;;9.60;99.90;;;;;;5009197;28;20269;-83
2022/11/25 08:39:22;;;;;;;13.83;4.07;;;9.70;99.90;;;;;;5021123;28;20169;-79
2022/11/25 08:42:09;;;;;;;15.37;4.30;;;9.80;99.90;;;;;;5018502;28;20572;-79
2022/11/25 08:44:35;;;;;;;15.77;4.37;;;9.80;99.90;;;;;;5018500;28;20159;-78
2022/11/25 08:47:02;;;;;;;11.70;4.00;;;9.90;99.90;;;;;;5002078;28;20178;-77
2022/11/25 08:49:29;;;;;;;12.33;4.23;;;9.80;99.90;;;;;;5024652;28;20181;-78
2022/11/25 08:51:56;;;;;;;11.73;4.43;;;9.70;99.90;;;;;;5007826;28;20185;-82
2022/11/25 08:54:24;;;;;;;12.50;4.27;;;9.80;99.90;;;;;;5009364;28;20499;-79
2022/11/25 08:56:52;;;;;;;13.10;4.60;;;9.80;99.90;;;;;;5020116;28;20654;-80
2022/11/25 08:59:26;;;;;;;13.67;4.70;;;9.90;99.90;;;;;;5019870;28;20188;-79
2022/11/25 09:02:02;;;;;;;10.30;3.77;;;10.00;99.90;;;;;;5005389;28;20229;-80
2022/11/25 09:04:28;;;;;;;10.90;3.83;;;9.80;99.90;;;;;;5010318;28;20164;-88
2022/11/25 09:06:56;;;;;;;14.57;4.20;;;9.80;99.90;;;;;;5025900;28;20543;-84
2022/11/25 09:09:22;;;;;;;12.47;4.17;;;9.80;99.90;;;;;;5024075;28;20280;-82
2022/11/25 09:11:48;;;;;;;10.20;3.70;;;9.90;99.90;;;;;;5022555;28;20204;-87
2022/11/25 09:14:13;;;;;;;15.80;3.83;;;9.90;99.90;;;;;;5022035;28;20178;-90
2022/11/25 09:16:42;;;;;;;9.77;3.27;;;9.90;99.90;;;;;;5022215;28;20158;-88
2022/11/25 09:19:09;;;;;;;9.87;3.00;;;9.80;99.90;;;;;;5018565;28;20269;-79
2022/11/25 09:21:35;;;;;;;11.00;3.60;;;9.90;99.90;;;;;;5018709;28;20745;-80
2022/11/25 09:24:01;;;;;;;11.70;3.77;;;9.90;99.90;;;;;;4985780;28;20202;-84
2022/11/25 09:26:30;;;;;;;13.07;3.67;;;9.80;99.90;;;;;;5018989;28;20170;-79
2022/11/25 09:28:56;;;;;;;10.37;3.63;;;9.90;99.90;;;;;;5020528;28;20170;-84
2022/11/25 09:31:23;;;;;;;12.23;3.77;;;9.80;99.90;;;;;;5020128;28;20749;-80
2022/11/25 09:33:49;;;;;;;13.43;4.13;;;9.80;99.90;;;;;;5007553;28;20182;-84
2022/11/25 09:36:17;;;;;;;12.30;4.30;;;9.90;99.90;;;;;;5030388;28;20159;-80
2022/11/25 09:38:43;;;;;;;15.63;5.00;;;10.00;99.90;;;;;;4994591;28;20209;-79
2022/11/25 09:46:40;;;;;;;13.63;3.93;;;10.00;99.90;;;;;;5027900;28;20182;-85
2022/11/25 09:47:35;;;;;;;17.07;6.60;;;10.10;99.90;;;;;;5024510;28;20245;-88
2022/11/25 09:50:01;;;;;;;10.13;3.53;;;10.30;99.90;;;;;;5024633;28;20171;-80
2022/11/25 09:52:52;;;;;;;7.37;3.10;;;10.40;99.90;;;;;;5025460;28;20240;-88
2022/11/25 09:55:23;;;;;;;7.90;2.97;;;10.60;99.90;;;;;;5009453;28;20189;-88
2022/11/25 09:57:57;;;;;;;11.30;4.13;;;10.60;99.90;;;;;;5030979;28;20165;-84
2022/11/25 10:00:41;;;;;;;10.93;3.40;;;10.60;99.90;;;;;;5015515;28;20154;-87
2022/11/25 10:04:00;;;;;;;10.50;4.30;;;10.70;99.90;;;;;;5034181;28;20221;-86
2022/11/25 10:06:42;;;;;;;9.13;3.80;;;10.70;99.90;;;;;;5037712;28;20163;-87
2022/11/25 10:09:29;;;;;;;10.43;4.30;;;10.70;99.90;;;;;;5031531;28;20186;-89
2022/11/25 10:12:29;;;;;;;10.53;3.80;;;10.70;99.90;;;;;;5029938;28;20161;-87
2022/11/25 10:15:25;;;;;;;10.90;3.67;;;10.90;99.90;;;;;;5019875;28;20175;-88
2022/11/25 10:17:58;;;;;;;6.87;2.90;;;10.80;99.90;;;;;;5028450;28;20252;-81
2022/11/25 10:20:24;;;;;;;9.43;3.13;;;10.90;99.90;;;;;;5031748;28;20181;-82
2022/11/25 10:23:00;;;;;;;9.97;3.33;;;10.80;99.90;;;;;;5032360;28;20198;-84
2022/11/25 10:26:02;;;;;;;6.63;3.23;;;11.00;99.90;;;;;;5034331;28;20158;-82
2022/11/25 10:28:36;;;;;;;10.53;2.87;;;11.00;99.60;;;;;;5004642;28;20237;-88
2022/11/25 10:31:26;;;;;;;7.07;2.70;;;11.10;98.30;;;;;;5032132;28;20195;-79
2022/11/25 10:33:57;;;;;;;8.47;3.60;;;11.20;97.50;;;;;;5030955;28;20236;-81
2022/11/25 10:36:30;;;;;;;7.97;3.20;;;11.30;96.90;;;;;;5008608;28;20175;-81
2022/11/25 10:39:23;;;;;;;5.93;2.93;;;11.30;96.80;;;;;;5037380;28;20230;-80
2022/11/25 10:42:03;;;;;;;7.20;3.17;;;11.30;95.60;;;;;;5038651;28;20216;-78
2022/11/25 10:44:47;;;;;;;6.60;2.73;;;11.50;95.30;;;;;;5019191;28;20190;-85
2022/11/25 10:47:34;;;;;;;7.90;2.93;;;11.50;94.60;;;;;;5019655;28;20240;-88
2022/11/25 10:50:47;;;;;;;7.13;3.07;;;11.50;94.10;;;;;;5017572;28;20186;-83
2022/11/25 10:53:23;;;;;;;10.20;3.13;;;11.40;95.80;;;;;;4956482;29;20177;-83
2022/11/25 10:56:04;;;;;;;8.07;2.90;;;11.50;94.10;;;;;;5025171;28;20186;-79
2022/11/25 10:58:43;;;;;;;12.13;4.50;;;11.50;95.20;;;;;;5011331;28;20190;-84
2022/11/25 11:01:24;;;;;;;8.97;3.23;;;11.60;94.90;;;;;;5023772;28;20170;-79
2022/11/25 11:04:17;;;;;;;10.30;3.53;;;11.50;94.60;;;;;;5008770;28;20187;-84
2022/11/25 11:06:48;;;;;;;12.83;3.67;;;11.50;95.00;;;;;;5027400;28;20173;-80
2022/11/25 11:09:31;;;;;;;10.03;3.20;;;11.50;94.70;;;;;;5029227;28;20174;-82
2022/11/25 11:11:56;;;;;;;9.00;2.90;;;11.60;93.60;;;;;;5035028;28;20189;-78
2022/11/25 11:14:28;;;;;;;9.37;3.27;;;11.60;93.00;;;;;;5017262;28;20174;-79
2022/11/25 11:16:57;;;;;;;10.53;3.33;;;11.60;92.90;;;;;;5013213;28;20189;-78
2022/11/25 11:19:28;;;;;;;10.97;3.50;;;11.60;93.60;;;;;;5025584;28;20169;-78
2022/11/25 11:22:13;;;;;;;8.40;2.90;;;11.70;92.60;;;;;;5023535;28;20658;-88
2022/11/25 11:24:43;;;;;;;9.97;3.60;;;11.90;92.10;;;;;;4991247;28;20206;-79
2022/11/25 11:27:21;;;;;;;10.30;3.30;;;12.10;89.00;;;;;;5020716;28;20169;-79
2022/11/25 11:30:26;;;;;;;12.77;4.17;;;12.20;88.10;;;;;;5022002;28;20185;-79
2022/11/25 11:33:47;;;;;;;12.80;7.00;;;12.40;84.70;;;;;;4941986;29;20195;-79
2022/11/25 11:36:20;;;;;;;14.60;7.17;;;12.30;76.50;;;;;;4909370;29;20302;-79
2022/11/25 11:39:00;;;;;;;9.33;3.40;;;12.20;77.20;;;;;;4937753;29;20201;-77
2022/11/25 11:41:38;;;;;;;16.10;3.80;;;12.10;78.40;;;;;;5000464;28;20218;-78
2022/11/25 11:44:31;;;;;;;11.70;3.30;;;12.10;79.70;;;;;;5036031;28;20149;-75
2022/11/25 11:47:06;;;;;;;15.37;3.60;;;12.00;83.30;;;;;;5013707;28;20201;-78
2022/11/25 11:50:22;;;;;;;12.43;3.70;;;12.10;82.30;;;;;;5027208;28;20170;-78
2022/11/25 11:53:32;;;;;;;8.47;2.83;;;12.10;78.80;;;;;;5007894;28;20673;-78
2022/11/25 11:56:36;;;;;;;9.07;3.57;;;12.20;77.70;;;;;;5026169;28;20153;-87
2022/11/25 11:59:21;;;;;;;12.30;3.30;;;12.20;79.20;;;;;;5011420;28;20205;-78
2022/11/25 12:01:55;;;;;;;8.77;3.33;;;12.20;80.20;;;;;;5018834;28;20205;-79
2022/11/25 12:04:51;;;;;;;7.67;3.00;;;12.20;78.40;;;;;;5033307;28;20162;-82
2022/11/25 12:07:39;;;;;;;9.97;3.07;;;12.30;75.30;;;;;;5019158;28;20190;-83
2022/11/25 12:10:28;;;;;;;10.03;3.20;;;12.40;71.80;;;;;;5012951;28;20210;-88
2022/11/25 12:13:24;;;;;;;11.80;3.60;;;12.30;71.50;;;;;;5032618;28;20179;-83
2022/11/25 12:19:10;;;;;;;13.67;3.30;;;12.20;77.70;;;;;;5037078;28;20170;-79
2022/11/25 12:21:54;;;;;;;11.83;3.53;;;12.20;74.90;;;;;;5014846;28;20277;-85
2022/11/25 12:24:30;;;;;;;10.77;3.73;;;12.30;80.00;;;;;;5011622;28;20209;-85
2022/11/25 12:27:07;;;;;;;12.83;3.97;;;12.40;78.30;;;;;;5034110;28;20493;-87
2022/11/25 12:29:48;;;;;;;10.30;3.73;;;12.40;77.80;;;;;;5035453;28;20174;-84
2022/11/25 12:32:37;;;;;;;13.40;3.53;;;12.40;76.90;;;;;;5037120;28;20281;-82
2022/11/25 12:35:41;;;;;;;8.70;3.43;;;12.30;79.00;;;;;;5036195;28;20154;-85
2022/11/25 12:38:46;;;;;;;15.30;3.90;;;12.30;79.80;;;;;;5035472;28;20174;-79
2022/11/25 12:41:43;;;;;;;12.40;3.97;;;12.30;81.60;;;;;;5032940;28;20201;-84
2022/11/25 12:44:36;;;;;;;12.33;3.60;;;12.50;79.70;;;;;;5031483;28;20182;-84
2022/11/25 12:47:14;;;;;;;11.67;3.67;;;12.70;77.40;;;;;;5033776;28;20168;-87
2022/11/25 12:49:51;;;;;;;10.97;3.33;;;12.60;76.50;;;;;;5030307;28;20238;-86
2022/11/25 12:52:39;;;;;;;13.87;3.50;;;12.60;74.80;;;;;;5009008;28;20749;-87
2022/11/25 12:55:24;;;;;;;14.80;4.43;;;12.70;73.70;;;;;;5028595;28;20169;-83
2022/11/25 12:58:38;;;;;;;7.83;3.20;;;12.60;73.30;;;;;;5034913;28;20234;-79
2022/11/25 13:01:39;;;;;;;14.80;3.93;;;12.50;76.60;;;;;;5029106;28;20165;-87
2022/11/25 13:04:33;;;;;;;12.60;3.60;;;12.60;74.20;;;;;;5027347;28;20258;-88
2022/11/25 13:07:25;;;;;;;14.20;4.33;;;12.60;76.40;;;;;;5027169;28;20182;-87
2022/11/25 13:10:03;;;;;;;12.93;4.03;;;12.70;77.60;;;;;;5028442;28;20169;-87
2022/11/25 13:12:58;;;;;;;13.93;3.50;;;12.80;75.50;;;;;;5027313;28;20655;-88
2022/11/25 13:15:37;;;;;;;12.20;3.90;;;13.00;72.30;;;;;;5028259;28;20224;-86
2022/11/25 13:18:37;;;;;;;14.50;4.93;;;13.00;71.00;;;;;;5010680;28;20178;-84
2022/11/25 13:21:27;;;;;;;11.53;3.67;;;13.00;72.50;;;;;;5030826;28;20209;-83
2022/11/25 13:24:00;;;;;;;13.17;3.90;;;13.00;71.50;;;;;;5032499;28;20165;-83
2022/11/25 13:26:33;;;;;;;17.90;4.70;;;12.90;73.90;;;;;;5012256;28;20146;-82
2022/11/25 13:29:13;;;;;;;13.23;4.07;;;12.90;74.40;;;;;;5028889;28;20329;-78